sensor_id;sensor_type;location;lat;lon;timestamp;pressure;altitude;pressure_sealevel;temperature;humidity
4012;BME280;2020;48.682;9.024;2022-11-18T00:01:43;94669.69;;;6.10;100.00
4012;BME280;2020;48.682;9.024;2022-11-18T00:04:09;94658.75;;;6.00;100.00
4012;BME280;2020;48.682;9.024;2022-11-18T00:06:34;94664.50;;;6.10;100.00
4012;BME280;2020;48.682;9.024;2022-11-18T00:08:59;94659.34;;;6.10;100.00
4012;BME280;2020;48.682;9.024;2022-11-18T00:11:26;94658.66;;;6.17;100.00
4012;BME280;2020;48.682;9.024;2022-11-18T00:14:16;94657.06;;;6.16;100.00
4012;BME280;2020;48.682;9.024;2022-11-18T00:16:46;94658.31;;;6.20;100.00
4012;BME280;2020;48.682;9.024;2022-11-18T00:19:12;94659.94;;;6.21;100.00
4012;BME280;2020;48.682;9.024;2022-11-18T00:21:38;94666.69;;;6.22;100.00
4012;BME280;2020;48.682;9.024;2022-11-18T00:24:03;94671.69;;;6.23;100.00
4012;BME280;2020;48.682;9.024;2022-11-18T00:26:29;94672.66;;;6.22;100.00
4012;BME280;2020;48.682;9.024;2022-11-18T00:28:54;94670.25;;;6.21;100.00
4012;BME280;2020;48.682;9.024;2022-11-18T00:31:19;94670.25;;;6.21;100.00
4012;BME280;2020;48.682;9.024;2022-11-18T00:33:44;94686.44;;;6.14;100.00
4012;BME280;2020;48.682;9.024;2022-11-18T00:36:11;94685.75;;;6.21;100.00
4012;BME280;2020;48.682;9.024;2022-11-18T00:38:36;94678.94;;;6.28;100.00
4012;BME280;2020;48.682;9.024;2022-11-18T00:43:32;94687.31;;;6.30;100.00
4012;BME280;2020;48.682;9.024;2022-11-18T00:45:57;94686.97;;;6.33;100.00
4012;BME280;2020;48.682;9.024;2022-11-18T00:48:23;94688.56;;;6.34;100.00
4012;BME280;2020;48.682;9.024;2022-11-18T00:50:49;94680.53;;;6.29;100.00
4012;BME280;2020;48.682;9.024;2022-11-18T00:53:15;94693.44;;;6.29;100.00
4012;BME280;2020;48.682;9.024;2022-11-18T00:55:40;94676.69;;;6.25;100.00
4012;BME280;2020;48.682;9.024;2022-11-18T00:58:05;94677.13;;;6.28;100.00
4012;BME280;2020;48.682;9.024;2022-11-18T01:00:30;94674.38;;;6.30;100.00
4012;BME280;2020;48.682;9.024;2022-11-18T01:02:56;94676.34;;;6.28;100.00
4012;BME280;2020;48.682;9.024;2022-11-18T01:05:21;94679.91;;;6.27;100.00
4012;BME280;2020;48.682;9.024;2022-11-18T01:07:46;94682.16;;;6.30;100.00
4012;BME280;2020;48.682;9.024;2022-11-18T01:10:12;94685.00;;;6.35;100.00
4012;BME280;2020;48.682;9.024;2022-11-18T01:12:37;94682.44;;;6.35;100.00
4012;BME280;2020;48.682;9.024;2022-11-18T01:15:20;94693.69;;;6.42;100.00
4012;BME280;2020;48.682;9.024;2022-11-18T01:17:46;94690.47;;;6.40;100.00
4012;BME280;2020;48.682;9.024;2022-11-18T01:20:11;94685.44;;;6.39;100.00
4012;BME280;2020;48.682;9.024;2022-11-18T01:22:36;94684.13;;;6.43;100.00
4012;BME280;2020;48.682;9.024;2022-11-18T01:25:02;94686.91;;;6.41;100.00
4012;BME280;2020;48.682;9.024;2022-11-18T01:27:27;94683.34;;;6.42;100.00
4012;BME280;2020;48.682;9.024;2022-11-18T01:29:52;94688.16;;;6.46;100.00
4012;BME280;2020;48.682;9.024;2022-11-18T01:32:18;94698.50;;;6.46;100.00
4012;BME280;2020;48.682;9.024;2022-11-18T01:34:43;94699.94;;;6.48;100.00
4012;BME280;2020;48.682;9.024;2022-11-18T01:37:08;94702.41;;;6.41;100.00
4012;BME280;2020;48.682;9.024;2022-11-18T01:39:34;94714.34;;;6.42;100.00
4012;BME280;2020;48.682;9.024;2022-11-18T01:41:59;94711.94;;;6.41;100.00
4012;BME280;2020;48.682;9.024;2022-11-18T01:45:03;94711.13;;;6.40;100.00
4012;BME280;2020;48.682;9.024;2022-11-18T01:47:37;94721.91;;;6.44;100.00
4012;BME280;2020;48.682;9.024;2022-11-18T01:50:05;94717.91;;;6.41;100.00
4012;BME280;2020;48.682;9.024;2022-11-18T01:52:32;94716.94;;;6.42;100.00
4012;BME280;2020;48.682;9.024;2022-11-18T01:55:03;94724.69;;;6.42;100.00
4012;BME280;2020;48.682;9.024;2022-11-18T01:57:30;94722.59;;;6.38;100.00
4012;BME280;2020;48.682;9.024;2022-11-18T01:59:58;94726.00;;;6.38;100.00
4012;BME280;2020;48.682;9.024;2022-11-18T02:02:25;94723.09;;;6.41;100.00
4012;BME280;2020;48.682;9.024;2022-11-18T02:04:51;94724.06;;;6.40;100.00
4012;BME280;2020;48.682;9.024;2022-11-18T02:07:19;94726.66;;;6.40;100.00
4012;BME280;2020;48.682;9.024;2022-11-18T02:09:46;94725.03;;;6.39;100.00
4012;BME280;2020;48.682;9.024;2022-11-18T02:12:12;94728.41;;;6.40;100.00
4012;BME280;2020;48.682;9.024;2022-11-18T02:14:41;94721.97;;;6.36;100.00
4012;BME280;2020;48.682;9.024;2022-11-18T02:20:13;94729.28;;;6.32;100.00
4012;BME280;2020;48.682;9.024;2022-11-18T02:23:15;94734.78;;;6.29;100.00
4012;BME280;2020;48.682;9.024;2022-11-18T02:29:07;94737.03;;;6.32;100.00
4012;BME280;2020;48.682;9.024;2022-11-18T02:31:54;94734.09;;;6.35;100.00
4012;BME280;2020;48.682;9.024;2022-11-18T02:34:36;94731.69;;;6.34;100.00
4012;BME280;2020;48.682;9.024;2022-11-18T02:37:20;94735.38;;;6.39;100.00
4012;BME280;2020;48.682;9.024;2022-11-18T02:39:53;94732.94;;;6.38;100.00
4012;BME280;2020;48.682;9.024;2022-11-18T02:42:21;94731.00;;;6.40;100.00
4012;BME280;2020;48.682;9.024;2022-11-18T02:44:51;94726.41;;;6.27;100.00
4012;BME280;2020;48.682;9.024;2022-11-18T02:47:19;94733.19;;;6.28;100.00
4012;BME280;2020;48.682;9.024;2022-11-18T02:49:47;94724.81;;;6.26;100.00
4012;BME280;2020;48.682;9.024;2022-11-18T02:52:15;94734.78;;;6.29;100.00
4012;BME280;2020;48.682;9.024;2022-11-18T02:54:43;94733.19;;;6.28;100.00
4012;BME280;2020;48.682;9.024;2022-11-18T02:57:10;94738.00;;;6.31;100.00
4012;BME280;2020;48.682;9.024;2022-11-18T02:59:37;94737.66;;;6.34;100.00
4012;BME280;2020;48.682;9.024;2022-11-18T03:02:02;94740.06;;;6.36;100.00
4012;BME280;2020;48.682;9.024;2022-11-18T03:04:28;94752.84;;;6.37;100.00
4012;BME280;2020;48.682;9.024;2022-11-18T03:07:16;94745.25;;;6.36;100.00
4012;BME280;2020;48.682;9.024;2022-11-18T03:09:45;94754.31;;;6.32;100.00
4012;BME280;2020;48.682;9.024;2022-11-18T03:15:15;94756.38;;;6.36;100.00
4012;BME280;2020;48.682;9.024;2022-11-18T03:20:37;94759.59;;;6.38;100.00
4012;BME280;2020;48.682;9.024;2022-11-18T03:23:13;94768.00;;;6.40;100.00
4012;BME280;2020;48.682;9.024;2022-11-18T03:25:48;94777.34;;;6.41;100.00
4012;BME280;2020;48.682;9.024;2022-11-18T03:28:26;94781.38;;;6.44;100.00
4012;BME280;2020;48.682;9.024;2022-11-18T03:30:59;94786.72;;;6.42;100.00
4012;BME280;2020;48.682;9.024;2022-11-18T03:33:33;94785.25;;;6.40;100.00
4012;BME280;2020;48.682;9.024;2022-11-18T03:36:03;94790.63;;;6.38;100.00
4012;BME280;2020;48.682;9.024;2022-11-18T03:38:33;94796.13;;;6.35;100.00
4012;BME280;2020;48.682;9.024;2022-11-18T03:41:03;94798.06;;;6.33;100.00
4012;BME280;2020;48.682;9.024;2022-11-18T03:43:34;94807.44;;;6.34;100.00
4012;BME280;2020;48.682;9.024;2022-11-18T03:48:36;94805.81;;;6.33;100.00
4012;BME280;2020;48.682;9.024;2022-11-18T03:51:08;94808.75;;;6.30;100.00
4012;BME280;2020;48.682;9.024;2022-11-18T03:53:44;94806.81;;;6.32;100.00
4012;BME280;2020;48.682;9.024;2022-11-18T03:56:15;94815.88;;;6.28;100.00
4012;BME280;2020;48.682;9.024;2022-11-18T03:58:49;94813.59;;;6.33;100.00
4012;BME280;2020;48.682;9.024;2022-11-18T04:04:04;94822.31;;;6.32;100.00
4012;BME280;2020;48.682;9.024;2022-11-18T04:06:35;94830.69;;;6.34;100.00
4012;BME280;2020;48.682;9.024;2022-11-18T04:09:08;94830.41;;;6.29;100.00
4012;BME280;2020;48.682;9.024;2022-11-18T04:11:41;94836.53;;;6.28;100.00
4012;BME280;2020;48.682;9.024;2022-11-18T04:14:28;94841.38;;;6.31;100.00
4012;BME280;2020;48.682;9.024;2022-11-18T04:16:53;94847.88;;;6.19;100.00
4012;BME280;2020;48.682;9.024;2022-11-18T04:19:19;94848.56;;;6.12;100.00
4012;BME280;2020;48.682;9.024;2022-11-18T04:21:46;94845.03;;;5.97;100.00
4012;BME280;2020;48.682;9.024;2022-11-18T04:24:12;94855.66;;;5.94;100.00
4012;BME280;2020;48.682;9.024;2022-11-18T04:26:37;94846.66;;;5.81;100.00
4012;BME280;2020;48.682;9.024;2022-11-18T04:29:02;94848.59;;;5.79;100.00
4012;BME280;2020;48.682;9.024;2022-11-18T04:31:28;94848.59;;;5.79;100.00
4012;BME280;2020;48.682;9.024;2022-11-18T04:33:53;94853.75;;;5.79;100.00
4012;BME280;2020;48.682;9.024;2022-11-18T04:36:18;94848.28;;;5.74;100.00
4012;BME280;2020;48.682;9.024;2022-11-18T04:38:44;94852.47;;;5.75;100.00
4012;BME280;2020;48.682;9.024;2022-11-18T04:41:09;94856.03;;;5.74;100.00
4012;BME280;2020;48.682;9.024;2022-11-18T04:43:34;94854.59;;;5.71;100.00
4012;BME280;2020;48.682;9.024;2022-11-18T04:46:00;94862.34;;;5.71;100.00
4012;BME280;2020;48.682;9.024;2022-11-18T04:48:25;94867.66;;;5.70;100.00
4012;BME280;2020;48.682;9.024;2022-11-18T04:50:50;94859.91;;;5.70;100.00
4012;BME280;2020;48.682;9.024;2022-11-18T04:53:15;94859.25;;;5.76;100.00
4012;BME280;2020;48.682;9.024;2022-11-18T04:55:41;94864.75;;;5.73;100.00
4012;BME280;2020;48.682;9.024;2022-11-18T04:58:06;94862.69;;;5.68;100.00
4012;BME280;2020;48.682;9.024;2022-11-18T05:00:31;94867.34;;;5.73;100.00
4012;BME280;2020;48.682;9.024;2022-11-18T05:02:56;94873.16;;;5.67;100.00
4012;BME280;2020;48.682;9.024;2022-11-18T05:05:22;94874.75;;;5.68;100.00
4012;BME280;2020;48.682;9.024;2022-11-18T05:07:47;94874.63;;;5.69;100.00
4012;BME280;2020;48.682;9.024;2022-11-18T05:10:12;94873.31;;;5.65;100.00
4012;BME280;2020;48.682;9.024;2022-11-18T05:12:37;94877.53;;;5.58;100.00
4012;BME280;2020;48.682;9.024;2022-11-18T05:15:17;94882.19;;;5.63;100.00
4012;BME280;2020;48.682;9.024;2022-11-18T05:17:42;94878.31;;;5.59;100.00
4012;BME280;2020;48.682;9.024;2022-11-18T05:20:08;94881.88;;;5.57;100.00
4012;BME280;2020;48.682;9.024;2022-11-18T05:22:33;94879.94;;;5.60;100.00
4012;BME280;2020;48.682;9.024;2022-11-18T05:24:59;94882.84;;;5.65;100.00
4012;BME280;2020;48.682;9.024;2022-11-18T05:27:24;94887.69;;;5.60;100.00
4012;BME280;2020;48.682;9.024;2022-11-18T05:29:50;94886.88;;;5.59;100.00
4012;BME280;2020;48.682;9.024;2022-11-18T05:32:15;94886.72;;;5.61;100.00
4012;BME280;2020;48.682;9.024;2022-11-18T05:34:41;94898.31;;;5.65;100.00
4012;BME280;2020;48.682;9.024;2022-11-18T05:37:06;94902.69;;;5.64;100.00
4012;BME280;2020;48.682;9.024;2022-11-18T05:39:32;94904.13;;;5.67;100.00
4012;BME280;2020;48.682;9.024;2022-11-18T05:41:58;94908.50;;;5.58;100.00
4012;BME280;2020;48.682;9.024;2022-11-18T05:44:42;94909.47;;;5.65;100.00
4012;BME280;2020;48.682;9.024;2022-11-18T05:47:07;94912.19;;;5.64;100.00
4012;BME280;2020;48.682;9.024;2022-11-18T05:49:32;94911.22;;;5.65;100.00
4012;BME280;2020;48.682;9.024;2022-11-18T05:51:57;94917.34;;;5.64;100.00
4012;BME280;2020;48.682;9.024;2022-11-18T05:54:23;94919.28;;;5.62;100.00
4012;BME280;2020;48.682;9.024;2022-11-18T05:56:48;94921.22;;;5.60;100.00
4012;BME280;2020;48.682;9.024;2022-11-18T05:59:13;94920.91;;;5.54;100.00
4012;BME280;2020;48.682;9.024;2022-11-18T06:01:44;94914.63;;;5.49;100.00
4012;BME280;2020;48.682;9.024;2022-11-18T06:04:18;94913.81;;;5.48;100.00
4012;BME280;2020;48.682;9.024;2022-11-18T06:06:46;94922.22;;;5.50;100.00
4012;BME280;2020;48.682;9.024;2022-11-18T06:09:14;94927.03;;;5.53;100.00
4012;BME280;2020;48.682;9.024;2022-11-18T06:11:44;94929.31;;;5.56;100.00
4012;BME280;2020;48.682;9.024;2022-11-18T06:14:21;94929.31;;;5.56;100.00
4012;BME280;2020;48.682;9.024;2022-11-18T06:16:51;94935.09;;;5.59;100.00
4012;BME280;2020;48.682;9.024;2022-11-18T06:19:18;94936.41;;;5.63;100.00
4012;BME280;2020;48.682;9.024;2022-11-18T06:21:44;94940.91;;;5.61;100.00
4012;BME280;2020;48.682;9.024;2022-11-18T06:24:10;94939.63;;;5.48;100.00
4012;BME280;2020;48.682;9.024;2022-11-18T06:26:36;94948.34;;;5.47;100.00
4012;BME280;2020;48.682;9.024;2022-11-18T06:29:03;94950.44;;;5.52;100.00
4012;BME280;2020;48.682;9.024;2022-11-18T06:31:29;94956.41;;;5.44;100.00
4012;BME280;2020;48.682;9.024;2022-11-18T06:33:55;94955.13;;;5.48;100.00
4012;BME280;2020;48.682;9.024;2022-11-18T06:36:20;94952.72;;;5.47;100.00
4012;BME280;2020;48.682;9.024;2022-11-18T06:38:45;94953.16;;;5.42;100.00
4012;BME280;2020;48.682;9.024;2022-11-18T06:41:10;94956.41;;;5.44;100.00
4012;BME280;2020;48.682;9.024;2022-11-18T06:43:36;94960.59;;;5.45;100.00
4012;BME280;2020;48.682;9.024;2022-11-18T06:46:07;94969.63;;;5.41;100.00
4012;BME280;2020;48.682;9.024;2022-11-18T06:48:52;94973.81;;;5.34;100.00
4012;BME280;2020;48.682;9.024;2022-11-18T06:51:17;94978.97;;;5.34;100.00
4012;BME280;2020;48.682;9.024;2022-11-18T06:53:43;94975.75;;;5.32;100.00
4012;BME280;2020;48.682;9.024;2022-11-18T06:56:10;94979.59;;;5.27;100.00
4012;BME280;2020;48.682;9.024;2022-11-18T06:58:36;94981.22;;;5.37;100.00
4012;BME280;2020;48.682;9.024;2022-11-18T07:01:10;94989.31;;;5.42;100.00
4012;BME280;2020;48.682;9.024;2022-11-18T07:03:36;94990.91;;;5.43;100.00
4012;BME280;2020;48.682;9.024;2022-11-18T07:06:02;94993.50;;;5.43;100.00
4012;BME280;2020;48.682;9.024;2022-11-18T07:08:27;94994.44;;;5.34;100.00
4012;BME280;2020;48.682;9.024;2022-11-18T07:10:52;95000.28;;;5.44;100.00
4012;BME280;2020;48.682;9.024;2022-11-18T07:13:18;94998.63;;;5.26;100.00
4012;BME280;2020;48.682;9.024;2022-11-18T07:15:43;95007.66;;;5.22;100.00
4012;BME280;2020;48.682;9.024;2022-11-18T07:18:08;95007.97;;;5.27;100.00
4012;BME280;2020;48.682;9.024;2022-11-18T07:20:34;95008.31;;;5.24;100.00
4012;BME280;2020;48.682;9.024;2022-11-18T07:22:59;95007.53;;;5.32;100.00
4012;BME280;2020;48.682;9.024;2022-11-18T07:25:24;95013.16;;;5.36;100.00
4012;BME280;2020;48.682;9.024;2022-11-18T07:27:49;95019.13;;;5.36;100.00
4012;BME280;2020;48.682;9.024;2022-11-18T07:30:15;95019.63;;;5.40;100.00
4012;BME280;2020;48.682;9.024;2022-11-18T07:32:40;95028.31;;;5.39;100.00
4012;BME280;2020;48.682;9.024;2022-11-18T07:35:05;95025.41;;;5.34;100.00
4012;BME280;2020;48.682;9.024;2022-11-18T07:37:31;95026.03;;;5.27;100.00
4012;BME280;2020;48.682;9.024;2022-11-18T07:39:56;95032.81;;;5.29;100.00
4012;BME280;2020;48.682;9.024;2022-11-18T07:42:23;95036.03;;;5.31;100.00
4012;BME280;2020;48.682;9.024;2022-11-18T07:44:49;95035.09;;;5.32;100.00
4012;BME280;2020;48.682;9.024;2022-11-18T07:47:14;95051.22;;;5.34;100.00
4012;BME280;2020;48.682;9.024;2022-11-18T07:49:39;95047.97;;;5.32;100.00
4012;BME280;2020;48.682;9.024;2022-11-18T07:52:05;95058.00;;;5.35;100.00
4012;BME280;2020;48.682;9.024;2022-11-18T07:54:30;95055.91;;;5.38;100.00
4012;BME280;2020;48.682;9.024;2022-11-18T07:56:56;95060.28;;;5.46;100.00
4012;BME280;2020;48.682;9.024;2022-11-18T07:59:21;95065.63;;;5.53;100.00
4012;BME280;2020;48.682;9.024;2022-11-18T08:01:46;95056.09;;;5.53;100.00
4012;BME280;2020;48.682;9.024;2022-11-18T08:04:11;95059.63;;;5.52;100.00
4012;BME280;2020;48.682;9.024;2022-11-18T08:06:38;95058.50;;;5.47;100.00
4012;BME280;2020;48.682;9.024;2022-11-18T08:09:04;95061.09;;;5.47;100.00
4012;BME280;2020;48.682;9.024;2022-11-18T08:11:30;95065.44;;;5.46;100.00
4012;BME280;2020;48.682;9.024;2022-11-18T08:13:55;95069.97;;;5.52;100.00
4012;BME280;2020;48.682;9.024;2022-11-18T08:16:22;95075.13;;;5.52;100.00
4012;BME280;2020;48.682;9.024;2022-11-18T08:18:48;95076.41;;;5.56;100.00
4012;BME280;2020;48.682;9.024;2022-11-18T08:21:16;95089.31;;;5.56;100.00
4012;BME280;2020;48.682;9.024;2022-11-18T08:23:42;95079.97;;;5.55;100.00
4012;BME280;2020;48.682;9.024;2022-11-18T08:26:10;95082.25;;;5.67;100.00
4012;BME280;2020;48.682;9.024;2022-11-18T08:28:37;95082.56;;;5.64;100.00
4012;BME280;2020;48.682;9.024;2022-11-18T08:31:14;95092.25;;;5.70;100.00
4012;BME280;2020;48.682;9.024;2022-11-18T08:33:39;95094.19;;;5.68;100.00
4012;BME280;2020;48.682;9.024;2022-11-18T08:36:07;95098.72;;;5.74;100.00
4012;BME280;2020;48.682;9.024;2022-11-18T08:38:33;95102.78;;;5.77;100.00
4012;BME280;2020;48.682;9.024;2022-11-18T08:40:58;95095.03;;;5.85;100.00
4012;BME280;2020;48.682;9.024;2022-11-18T08:43:24;95103.44;;;5.87;100.00
4012;BME280;2020;48.682;9.024;2022-11-18T08:45:49;95100.00;;;5.78;100.00
4012;BME280;2020;48.682;9.024;2022-11-18T08:48:14;95101.63;;;5.79;100.00
4012;BME280;2020;48.682;9.024;2022-11-18T08:50:39;95103.25;;;5.80;100.00
4012;BME280;2020;48.682;9.024;2022-11-18T08:53:05;95103.56;;;5.77;100.00
4012;BME280;2020;48.682;9.024;2022-11-18T08:55:30;95105.81;;;5.72;100.00
4012;BME280;2020;48.682;9.024;2022-11-18T08:57:55;95108.41;;;5.80;100.00
4012;BME280;2020;48.682;9.024;2022-11-18T09:00:21;95115.03;;;5.75;100.00
4012;BME280;2020;48.682;9.024;2022-11-18T09:02:46;95120.34;;;5.81;100.00
4012;BME280;2020;48.682;9.024;2022-11-18T09:05:11;95115.19;;;5.81;100.00
4012;BME280;2020;48.682;9.024;2022-11-18T09:07:36;95121.66;;;5.85;100.00
4012;BME280;2020;48.682;9.024;2022-11-18T09:10:02;95124.56;;;5.82;100.00
4012;BME280;2020;48.682;9.024;2022-11-18T09:12:28;95130.38;;;5.84;100.00
4012;BME280;2020;48.682;9.024;2022-11-18T09:14:53;95129.25;;;5.87;100.00
4012;BME280;2020;48.682;9.024;2022-11-18T09:17:18;95130.03;;;5.88;100.00
4012;BME280;2020;48.682;9.024;2022-11-18T09:19:43;95136.81;;;5.89;100.00
4012;BME280;2020;48.682;9.024;2022-11-18T09:22:09;95133.94;;;5.92;100.00
4012;BME280;2020;48.682;9.024;2022-11-18T09:24:34;95135.41;;;5.94;100.00
4012;BME280;2020;48.682;9.024;2022-11-18T09:27:05;95138.78;;;5.95;100.00
4012;BME280;2020;48.682;9.024;2022-11-18T09:29:31;95134.91;;;5.91;100.00
4012;BME280;2020;48.682;9.024;2022-11-18T09:31:56;95137.81;;;5.96;100.00
4012;BME280;2020;48.682;9.024;2022-11-18T09:34:22;95135.63;;;6.01;100.00
4012;BME280;2020;48.682;9.024;2022-11-18T09:36:48;95140.94;;;6.08;100.00
4012;BME280;2020;48.682;9.024;2022-11-18T09:39:14;95146.28;;;6.14;100.00
4012;BME280;2020;48.682;9.024;2022-11-18T09:47:21;95152.75;;;6.10;100.00
4012;BME280;2020;48.682;9.024;2022-11-18T09:49:49;95155.63;;;6.07;100.00
4012;BME280;2020;48.682;9.024;2022-11-18T09:52:29;95158.69;;;6.11;100.00
4012;BME280;2020;48.682;9.024;2022-11-18T09:54:57;95156.28;;;6.18;100.00
4012;BME280;2020;48.682;9.024;2022-11-18T09:57:40;95162.44;;;6.25;100.00
4012;BME280;2020;48.682;9.024;2022-11-18T10:00:16;95158.56;;;6.29;100.00
4012;BME280;2020;48.682;9.024;2022-11-18T10:02:49;95161.28;;;6.27;100.00
4012;BME280;2020;48.682;9.024;2022-11-18T10:05:19;95164.72;;;6.36;100.00
4012;BME280;2020;48.682;9.024;2022-11-18T10:08:10;95164.72;;;6.36;100.00
4012;BME280;2020;48.682;9.024;2022-11-18T10:16:08;95170.19;;;6.66;100.00
4012;BME280;2020;48.682;9.024;2022-11-18T10:18:54;95170.19;;;6.66;100.00
4012;BME280;2020;48.682;9.024;2022-11-18T10:21:36;95172.44;;;6.78;100.00
4012;BME280;2020;48.682;9.024;2022-11-18T10:24:11;95180.19;;;6.86;100.00
4012;BME280;2020;48.682;9.024;2022-11-18T10:26:40;95177.91;;;6.91;100.00
4012;BME280;2020;48.682;9.024;2022-11-18T10:29:06;95181.16;;;6.93;100.00
4012;BME280;2020;48.682;9.024;2022-11-18T10:31:53;95182.31;;;6.91;100.00
4012;BME280;2020;48.682;9.024;2022-11-18T10:34:22;95183.09;;;6.91;100.00
4012;BME280;2020;48.682;9.024;2022-11-18T10:37:02;95183.41;;;7.05;100.00
4012;BME280;2020;48.682;9.024;2022-11-18T10:39:28;95189.84;;;7.17;100.00
4012;BME280;2020;48.682;9.024;2022-11-18T10:42:02;95185.94;;;7.29;100.00
4012;BME280;2020;48.682;9.024;2022-11-18T10:44:34;95189.97;;;7.32;100.00
4012;BME280;2020;48.682;9.024;2022-11-18T10:49:49;95192.41;;;7.34;100.00
4012;BME280;2020;48.682;9.024;2022-11-18T10:52:15;95188.19;;;7.24;100.00
4012;BME280;2020;48.682;9.024;2022-11-18T10:54:41;95198.88;;;7.21;100.00
4012;BME280;2020;48.682;9.024;2022-11-18T10:57:17;95192.41;;;7.17;100.00
4012;BME280;2020;48.682;9.024;2022-11-18T11:04:47;95201.31;;;7.23;100.00
4012;BME280;2020;48.682;9.024;2022-11-18T11:07:21;95197.59;;;7.17;100.00
4012;BME280;2020;48.682;9.024;2022-11-18T11:15:11;95196.94;;;7.23;100.00
4012;BME280;2020;48.682;9.024;2022-11-18T11:17:51;95203.72;;;7.32;100.00
4012;BME280;2020;48.682;9.024;2022-11-18T11:20:37;95206.22;;;7.66;100.00
4012;BME280;2020;48.682;9.024;2022-11-18T11:23:10;95205.88;;;7.69;94.90
4012;BME280;2020;48.682;9.024;2022-11-18T11:25:42;95199.41;;;7.65;95.82
4012;BME280;2020;48.682;9.024;2022-11-18T11:31:05;95195.25;;;7.55;95.80
4012;BME280;2020;48.682;9.024;2022-11-18T11:39:17;95206.13;;;7.34;95.75
4012;BME280;2020;48.682;9.024;2022-11-18T11:42:00;95215.84;;;7.32;97.88
4012;BME280;2020;48.682;9.024;2022-11-18T11:44:57;95216.34;;;7.36;97.61
4012;BME280;2020;48.682;9.024;2022-11-18T11:47:47;95223.25;;;7.43;95.88
4012;BME280;2020;48.682;9.024;2022-11-18T11:50:22;95221.72;;;7.74;95.20
4012;BME280;2020;48.682;9.024;2022-11-18T11:55:50;95215.16;;;7.95;92.67
4012;BME280;2020;48.682;9.024;2022-11-18T12:00:59;95215.41;;;8.08;92.71
4012;BME280;2020;48.682;9.024;2022-11-18T12:06:09;95224.75;;;8.17;94.67
4012;BME280;2020;48.682;9.024;2022-11-18T12:08:36;95217.91;;;7.93;88.33
4012;BME280;2020;48.682;9.024;2022-11-18T12:11:11;95219.41;;;7.87;91.21
4012;BME280;2020;48.682;9.024;2022-11-18T12:19:14;95219.81;;;8.31;88.28
4012;BME280;2020;48.682;9.024;2022-11-18T12:32:28;95226.50;;;7.94;90.91
4012;BME280;2020;48.682;9.024;2022-11-18T12:34:57;95230.72;;;7.86;91.55
4012;BME280;2020;48.682;9.024;2022-11-18T12:45:53;95239.50;;;7.77;92.38
4012;BME280;2020;48.682;9.024;2022-11-18T12:48:33;95243.69;;;7.86;91.76
4012;BME280;2020;48.682;9.024;2022-11-18T12:53:50;95228.63;;;8.53;84.87
4012;BME280;2020;48.682;9.024;2022-11-18T12:58:49;95222.25;;;9.02;83.51
4012;BME280;2020;48.682;9.024;2022-11-18T13:01:20;95227.56;;;9.39;79.36
4012;BME280;2020;48.682;9.024;2022-11-18T13:03:45;95230.69;;;9.94;76.52
4012;BME280;2020;48.682;9.024;2022-11-18T13:06:29;95233.56;;;10.00;74.68
4012;BME280;2020;48.682;9.024;2022-11-18T13:09:01;95236.78;;;9.42;75.57
4012;BME280;2020;48.682;9.024;2022-11-18T13:11:29;95236.88;;;9.33;76.71
4012;BME280;2020;48.682;9.024;2022-11-18T13:14:24;95237.09;;;9.09;78.00
4012;BME280;2020;48.682;9.024;2022-11-18T13:17:33;95241.31;;;8.71;79.74
4012;BME280;2020;48.682;9.024;2022-11-18T13:20:32;95243.00;;;8.56;78.04
4012;BME280;2020;48.682;9.024;2022-11-18T13:25:53;95249.44;;;8.05;79.25
4012;BME280;2020;48.682;9.024;2022-11-18T13:33:44;95252.28;;;8.18;80.00
4012;BME280;2020;48.682;9.024;2022-11-18T13:36:17;95246.16;;;8.11;80.04
4012;BME280;2020;48.682;9.024;2022-11-18T13:38:58;95243.69;;;7.86;79.04
4012;BME280;2020;48.682;9.024;2022-11-18T13:41:25;95249.25;;;7.67;79.79
4012;BME280;2020;48.682;9.024;2022-11-18T13:46:38;95252.09;;;7.88;80.06
4012;BME280;2020;48.682;9.024;2022-11-18T13:49:05;95260.66;;;8.84;76.63
4012;BME280;2020;48.682;9.024;2022-11-18T13:51:31;95252.31;;;9.12;74.65
4012;BME280;2020;48.682;9.024;2022-11-18T13:53:56;95258.53;;;9.41;74.59
4012;BME280;2020;48.682;9.024;2022-11-18T13:56:24;95255.81;;;8.81;74.19
4012;BME280;2020;48.682;9.024;2022-11-18T13:58:54;95261.13;;;8.64;76.13
4012;BME280;2020;48.682;9.024;2022-11-18T14:01:27;95259.72;;;8.53;76.56
4012;BME280;2020;48.682;9.024;2022-11-18T14:04:14;95271.75;;;8.14;76.96
4012;BME280;2020;48.682;9.024;2022-11-18T14:06:40;95266.63;;;7.98;78.77
4012;BME280;2020;48.682;9.024;2022-11-18T14:11:43;95266.56;;;7.66;79.06
4012;BME280;2020;48.682;9.024;2022-11-18T14:14:09;95259.00;;;7.56;79.87
4012;BME280;2020;48.682;9.024;2022-11-18T14:16:39;95271.66;;;7.51;80.52
4012;BME280;2020;48.682;9.024;2022-11-18T14:19:09;95271.66;;;7.51;81.49
4012;BME280;2020;48.682;9.024;2022-11-18T14:21:50;95268.09;;;7.52;82.55
4012;BME280;2020;48.682;9.024;2022-11-18T14:24:15;95269.69;;;7.53;83.03
4012;BME280;2020;48.682;9.024;2022-11-18T14:26:41;95268.41;;;7.49;82.22
4012;BME280;2020;48.682;9.024;2022-11-18T14:29:17;95268.91;;;7.36;82.17
4012;BME280;2020;48.682;9.024;2022-11-18T14:32:23;95268.03;;;9.33;74.61
4012;BME280;2020;48.682;9.024;2022-11-18T14:35:00;95254.75;;;11.49;66.54
4012;BME280;2020;48.682;9.024;2022-11-18T14:37:26;95270.38;;;12.19;62.47
4012;BME280;2020;48.682;9.024;2022-11-18T14:39:56;95263.81;;;11.53;63.18
4012;BME280;2020;48.682;9.024;2022-11-18T14:42:22;95266.00;;;9.74;68.57
4012;BME280;2020;48.682;9.024;2022-11-18T14:44:48;95274.97;;;8.80;73.84
4012;BME280;2020;48.682;9.024;2022-11-18T14:47:27;95280.50;;;8.13;76.34
4012;BME280;2020;48.682;9.024;2022-11-18T14:49:53;95283.19;;;7.88;78.13
4012;BME280;2020;48.682;9.024;2022-11-18T14:52:19;95285.97;;;7.70;77.39
4012;BME280;2020;48.682;9.024;2022-11-18T14:54:44;95293.00;;;7.45;79.65
4012;BME280;2020;48.682;9.024;2022-11-18T14:57:11;95299.19;;;7.36;81.08
4012;BME280;2020;48.682;9.024;2022-11-18T14:59:38;95302.75;;;7.35;81.86
4012;BME280;2020;48.682;9.024;2022-11-18T15:02:03;95305.31;;;7.26;81.42
4012;BME280;2020;48.682;9.024;2022-11-18T15:04:28;95311.13;;;7.20;81.00
4012;BME280;2020;48.682;9.024;2022-11-18T15:06:54;95308.41;;;7.05;83.28
4012;BME280;2020;48.682;9.024;2022-11-18T15:09:19;95312.44;;;7.08;83.48
4012;BME280;2020;48.682;9.024;2022-11-18T15:11:44;95315.03;;;6.99;83.00
4012;BME280;2020;48.682;9.024;2022-11-18T15:14:10;95314.69;;;7.02;83.59
4012;BME280;2020;48.682;9.024;2022-11-18T15:16:35;95322.78;;;7.08;83.51
4012;BME280;2020;48.682;9.024;2022-11-18T15:19:02;95323.44;;;7.01;84.03
4012;BME280;2020;48.682;9.024;2022-11-18T15:21:29;95322.63;;;7.01;85.01